Time;durP1;ratioP1;P1;durP2;ratioP2;P2;SDS_P1;SDS_P2;PMS_P1;PMS_P2;Temp;Humidity;BMP_temperature;BMP_pressure;BME280_temperature;BME280_humidity;BME280_pressure;Samples;Min_cycle;Max_cycle;Signal;HPM_P1;HPM_P2
2023/09/06 00:01:44;;;;;;;6.38;3.00;;;;;;;19.72;93.77;101655.28;4789598;29;20103;-88
2023/09/06 00:04:11;;;;;;;3.83;2.27;;;;;;;19.67;95.25;101657.97;4790103;29;20092;-88
2023/09/06 00:06:37;;;;;;;4.32;2.45;;;;;;;19.64;96.02;101647.50;4790043;29;20480;-88
2023/09/06 00:09:03;;;;;;;3.17;2.47;;;;;;;19.62;95.86;101663.41;4805929;29;20068;-88
2023/09/06 00:11:33;;;;;;;4.25;3.00;;;;;;;19.58;95.98;101654.03;4789944;29;20042;-88
2023/09/06 00:14:03;;;;;;;3.40;2.42;;;;;;;19.57;96.28;101649.59;4804774;29;20087;-88
2023/09/06 00:16:28;;;;;;;3.60;2.50;;;;;;;19.54;95.10;101653.69;4806114;29;20039;-88
2023/09/06 00:18:56;;;;;;;4.07;2.70;;;;;;;19.54;94.63;101652.88;4789846;29;20038;-89
2023/09/06 00:21:23;;;;;;;5.38;2.35;;;;;;;19.50;96.25;101646.22;4774865;29;20055;-88
2023/09/06 00:23:51;;;;;;;8.07;2.70;;;;;;;19.51;97.38;101647.88;4789811;29;20042;-88
2023/09/06 00:26:16;;;;;;;7.77;2.70;;;;;;;19.40;97.58;101642.25;4790167;29;20112;-88
2023/09/06 00:28:42;;;;;;;5.00;2.42;;;;;;;19.41;97.91;101638.41;4805877;29;20039;-88
2023/09/06 00:31:07;;;;;;;7.77;2.80;;;;;;;19.34;97.28;101637.78;4789542;29;20125;-88
2023/09/06 00:33:35;;;;;;;4.87;2.97;;;;;;;19.30;97.34;101638.53;4806067;29;20046;-88
2023/09/06 00:36:07;;;;;;;4.30;2.50;;;;;;;19.26;97.51;101650.03;4809058;29;20035;-89
2023/09/06 00:38:38;;;;;;;8.43;2.60;;;;;;;19.22;96.27;101635.13;4808128;29;20464;-88
2023/09/06 00:41:07;;;;;;;5.47;2.85;;;;;;;19.25;96.12;101647.53;4808788;29;20103;-89
2023/09/06 00:43:35;;;;;;;3.50;2.60;;;;;;;19.22;97.25;101650.78;4792751;29;20062;-89
2023/09/06 00:46:10;;;;;;;6.30;2.60;;;;;;;19.19;96.88;101651.31;4792551;29;20042;-89
2023/09/06 00:48:38;;;;;;;4.13;2.42;;;;;;;19.18;96.79;101655.97;4807491;29;20057;-88
2023/09/06 00:51:06;;;;;;;3.88;2.50;;;;;;;19.11;97.23;101653.41;4807701;29;20555;-89
2023/09/06 00:53:40;;;;;;;3.65;2.83;;;;;;;19.09;96.79;101652.84;4807650;29;20031;-88
2023/09/06 00:56:08;;;;;;;5.10;2.77;;;;;;;19.05;97.96;101648.91;4807407;29;20031;-88
2023/09/06 00:58:38;;;;;;;4.65;3.40;;;;;;;19.00;96.61;101650.75;4792504;29;20034;-89
2023/09/06 01:01:06;;;;;;;6.57;2.92;;;;;;;18.99;95.72;101657.38;4792019;29;20039;-88
2023/09/06 01:03:40;;;;;;;5.15;2.70;;;;;;;18.97;94.87;101654.00;4807188;29;20495;-88
2023/09/06 01:06:33;;;;;;;5.05;2.65;;;;;;;18.97;93.96;101662.25;4792791;29;20087;-88
2023/09/06 01:09:10;;;;;;;4.07;2.43;;;;;;;18.98;94.91;101664.75;4792346;29;20033;-88
2023/09/06 01:11:40;;;;;;;5.90;2.72;;;;;;;18.98;94.26;101656.50;4792477;29;20105;-88
2023/09/06 01:14:06;;;;;;;4.72;2.75;;;;;;;19.00;94.30;101657.09;4808319;29;20392;-88
2023/09/06 01:16:41;;;;;;;6.75;3.10;;;;;;;19.02;94.17;101657.69;4792044;29;20047;-87
2023/09/06 01:19:12;;;;;;;5.67;2.80;;;;;;;18.99;94.08;101665.63;4807010;29;20038;-88
2023/09/06 01:22:08;;;;;;;7.20;2.80;;;;;;;18.97;93.41;101657.63;4808112;29;20122;-87
2023/09/06 01:24:35;;;;;;;5.93;3.10;;;;;;;18.92;94.64;101654.78;4785207;29;20042;-88
2023/09/06 01:27:13;;;;;;;9.15;3.00;;;;;;;18.90;93.97;101652.28;4807300;29;20039;-88
2023/09/06 01:29:42;;;;;;;8.18;2.70;;;;;;;18.85;94.54;101654.94;4791718;29;20058;-88
2023/09/06 01:32:07;;;;;;;5.47;3.03;;;;;;;18.85;94.89;101660.44;4791617;29;20031;-87
2023/09/06 01:34:33;;;;;;;5.28;3.00;;;;;;;18.81;96.07;101655.66;4806713;29;20043;-89
2023/09/06 01:37:00;;;;;;;6.60;2.83;;;;;;;18.79;95.08;101663.34;4791687;29;20031;-88
2023/09/06 01:39:26;;;;;;;5.90;3.28;;;;;;;18.74;96.29;101664.91;4806896;29;20184;-89
2023/09/06 01:42:00;;;;;;;6.97;3.17;;;;;;;18.70;96.33;101665.66;4806610;29;20034;-88
2023/09/06 01:44:30;;;;;;;6.23;3.60;;;;;;;18.69;96.64;101672.25;4776900;29;20122;-89
2023/09/06 01:47:05;;;;;;;6.05;3.08;;;;;;;18.64;96.61;101662.00;4791909;29;20041;-89
2023/09/06 01:49:30;;;;;;;4.63;2.75;;;;;;;18.61;96.60;101668.00;4791656;29;20519;-89
2023/09/06 01:51:57;;;;;;;9.00;3.30;;;;;;;18.63;97.63;101674.09;4791625;29;20035;-88
2023/09/06 01:54:26;;;;;;;5.35;3.03;;;;;;;18.59;97.61;101668.25;4807673;29;20038;-88
2023/09/06 01:56:51;;;;;;;8.88;3.10;;;;;;;18.55;97.63;101671.75;4807522;29;20066;-89
2023/09/06 01:59:17;;;;;;;8.77;3.10;;;;;;;18.49;98.14;101664.50;4807045;29;20843;-88
2023/09/06 02:01:45;;;;;;;4.15;3.15;;;;;;;18.46;98.45;101668.56;4802947;29;20066;-88
2023/09/06 02:04:15;;;;;;;11.80;2.87;;;;;;;18.42;99.83;101672.91;4787993;30;20512;-88
2023/09/06 02:06:49;;;;;;;5.82;3.15;;;;;;;18.41;99.81;101672.06;4788024;29;20100;-88
2023/09/06 02:09:19;;;;;;;6.50;2.90;;;;;;;18.40;98.79;101666.81;4788110;29;20063;-88
2023/09/06 02:11:44;;;;;;;6.65;3.38;;;;;;;18.34;99.46;101665.91;4788052;29;20031;-88
2023/09/06 02:14:16;;;;;;;6.03;3.50;;;;;;;18.33;99.51;101664.22;4789233;30;20408;-88
2023/09/06 02:16:45;;;;;;;4.72;3.40;;;;;;;18.32;99.43;101668.06;4802482;29;20047;-87
2023/09/06 02:19:13;;;;;;;8.15;3.53;;;;;;;18.30;99.82;101666.66;4773470;30;20121;-88
2023/09/06 02:21:41;;;;;;;6.63;3.47;;;;;;;18.23;99.79;101669.53;4802649;29;20503;-88
2023/09/06 02:24:09;;;;;;;7.17;3.47;;;;;;;18.20;99.90;101670.03;4758058;29;20047;-88
2023/09/06 02:26:35;;;;;;;8.32;3.20;;;;;;;18.23;100.00;101672.28;4787853;29;20540;-88
2023/09/06 02:29:00;;;;;;;4.63;3.30;;;;;;;18.18;100.00;101673.03;4772496;30;20077;-88
2023/09/06 02:31:29;;;;;;;6.63;3.47;;;;;;;18.17;100.00;101673.28;4802583;29;20062;-88
2023/09/06 02:33:57;;;;;;;7.47;3.40;;;;;;;18.13;100.00;101681.19;4788781;29;20031;-88
2023/09/06 02:36:28;;;;;;;7.18;3.60;;;;;;;18.10;100.00;101678.09;4802700;29;20055;-88
2023/09/06 02:38:57;;;;;;;6.63;3.53;;;;;;;18.05;100.00;101676.06;4802289;29;20501;-88
2023/09/06 02:41:30;;;;;;;5.22;3.53;;;;;;;18.03;100.00;101681.00;4787132;29;20059;-88
2023/09/06 02:43:55;;;;;;;4.00;3.17;;;;;;;17.98;100.00;101678.97;4787610;29;20122;-88
2023/09/06 02:46:21;;;;;;;8.43;3.65;;;;;;;17.96;100.00;101681.13;4787337;29;20134;-88
2023/09/06 02:48:53;;;;;;;6.63;3.50;;;;;;;17.93;100.00;101687.09;4802507;29;20028;-88
2023/09/06 02:51:20;;;;;;;5.65;3.38;;;;;;;17.87;100.00;101675.16;4773716;30;20130;-88
2023/09/06 02:53:46;;;;;;;5.63;3.10;;;;;;;17.83;100.00;101682.22;4801845;29;20096;-88
2023/09/06 02:56:14;;;;;;;5.37;3.10;;;;;;;17.81;100.00;101669.81;4758036;30;20050;-87
2023/09/06 02:58:42;;;;;;;11.37;3.70;;;;;;;17.80;100.00;101688.19;4786594;29;20284;-88
2023/09/06 03:01:19;;;;;;;6.18;3.38;;;;;;;17.73;100.00;101679.28;4802217;29;20096;-88
2023/09/06 03:03:53;;;;;;;4.50;3.00;;;;;;;17.73;100.00;101686.66;4772306;30;20047;-88
2023/09/06 03:06:21;;;;;;;5.85;3.72;;;;;;;17.68;100.00;101688.22;4787228;29;20096;-88
2023/09/06 03:08:47;;;;;;;5.97;3.80;;;;;;;17.66;100.00;101695.03;4787446;29;20047;-88
2023/09/06 03:11:15;;;;;;;8.23;3.50;;;;;;;17.65;100.00;101682.41;4788778;29;20031;-88
2023/09/06 03:13:42;;;;;;;5.30;3.40;;;;;;;17.64;100.00;101691.69;4787134;29;20035;-87
2023/09/06 03:16:13;;;;;;;8.70;3.50;;;;;;;17.62;100.00;101688.38;4801922;29;20585;-88
2023/09/06 03:18:42;;;;;;;6.68;3.47;;;;;;;17.62;100.00;101688.38;4772528;29;20465;-87
2023/09/06 03:21:13;;;;;;;7.25;4.03;;;;;;;17.54;100.00;101681.34;4788471;29;20055;-88
2023/09/06 03:23:39;;;;;;;5.63;3.70;;;;;;;17.51;100.00;101690.91;4788374;29;20046;-87
2023/09/06 03:26:05;;;;;;;6.43;3.30;;;;;;;17.50;100.00;101696.63;4787546;29;20035;-88
2023/09/06 03:28:31;;;;;;;4.82;3.35;;;;;;;17.51;100.00;101695.56;4771577;30;20047;-87
2023/09/06 03:30:58;;;;;;;5.20;3.08;;;;;;;17.47;100.00;101688.88;4788405;29;20032;-88
2023/09/06 03:33:25;;;;;;;6.00;3.28;;;;;;;17.46;100.00;101696.25;4801897;29;20096;-88
2023/09/06 03:35:51;;;;;;;3.80;3.40;;;;;;;17.41;100.00;101698.06;4772142;30;20477;-88
2023/09/06 03:38:25;;;;;;;5.70;3.28;;;;;;;17.41;100.00;101695.34;4802150;29;20037;-87
2023/09/06 03:40:50;;;;;;;4.95;3.35;;;;;;;17.31;100.00;101693.19;4787252;30;20110;-88
2023/09/06 03:43:29;;;;;;;5.57;3.33;;;;;;;17.29;100.00;101692.59;4801827;29;20130;-89
2023/09/06 03:45:58;;;;;;;8.70;3.50;;;;;;;17.28;100.00;101699.97;4802327;29;20126;-88
2023/09/06 03:48:30;;;;;;;4.95;3.28;;;;;;;17.22;100.00;101698.19;4787104;29;20046;-88
2023/09/06 03:50:56;;;;;;;4.17;2.93;;;;;;;17.21;100.00;101692.97;4786786;29;20023;-88
2023/09/06 03:53:25;;;;;;;3.97;3.10;;;;;;;17.18;100.00;101697.00;4787110;29;20074;-87
2023/09/06 03:55:57;;;;;;;5.90;3.28;;;;;;;17.18;100.00;101699.75;4788229;29;20106;-89
2023/09/06 03:58:23;;;;;;;6.05;3.50;;;;;;;17.12;100.00;101698.78;4788126;30;20066;-88
2023/09/06 04:00:51;;;;;;;5.93;3.70;;;;;;;17.08;100.00;101714.06;4771880;30;20070;-88
2023/09/06 04:03:18;;;;;;;4.57;3.43;;;;;;;17.07;100.00;101709.66;4787962;29;20143;-88
2023/09/06 04:05:46;;;;;;;5.10;3.80;;;;;;;17.10;100.00;101709.16;4771792;30;20083;-88
2023/09/06 04:08:18;;;;;;;8.98;3.95;;;;;;;17.00;100.00;101707.00;4787136;29;20062;-87
2023/09/06 04:10:45;;;;;;;4.28;3.35;;;;;;;16.97;100.00;101707.50;4774373;30;20043;-88
2023/09/06 04:13:13;;;;;;;7.85;4.20;;;;;;;16.98;100.00;101714.66;4775419;30;20191;-88
2023/09/06 04:15:42;;;;;;;5.17;3.57;;;;;;;16.89;100.00;101710.59;4805113;29;20038;-87
2023/09/06 04:18:10;;;;;;;8.10;3.78;;;;;;;16.78;100.00;101711.38;4775113;30;20511;-88
2023/09/06 04:20:38;;;;;;;6.10;3.83;;;;;;;16.71;100.00;101711.50;4791119;29;20037;-87
2023/09/06 04:23:13;;;;;;;8.52;4.20;;;;;;;16.66;100.00;101717.66;4790066;29;20400;-88
2023/09/06 04:25:45;;;;;;;5.95;3.60;;;;;;;16.59;100.00;101705.97;4790677;29;20066;-88
2023/09/06 04:28:12;;;;;;;5.37;3.40;;;;;;;16.56;100.00;101716.56;4790707;29;20112;-88
2023/09/06 04:30:42;;;;;;;7.18;3.65;;;;;;;16.54;100.00;101715.97;4790331;29;20122;-88
2023/09/06 04:33:12;;;;;;;11.93;4.07;;;;;;;16.52;100.00;101715.38;4790076;30;20035;-88
2023/09/06 04:35:55;;;;;;;7.50;4.00;;;;;;;16.53;100.00;101722.53;4789805;29;20047;-88
2023/09/06 04:38:25;;;;;;;7.25;4.00;;;;;;;16.52;100.00;101718.97;4789858;29;20035;-88
2023/09/06 04:40:51;;;;;;;8.20;3.97;;;;;;;16.55;100.00;101717.63;4790158;29;20045;-87
2023/09/06 04:43:18;;;;;;;5.35;3.58;;;;;;;16.54;100.00;101715.97;4789667;29;20035;-88
2023/09/06 04:45:49;;;;;;;6.57;3.67;;;;;;;16.57;100.00;101723.72;4790916;29;20092;-87
2023/09/06 04:48:18;;;;;;;5.00;3.85;;;;;;;16.53;100.00;101717.88;4789485;29;20059;-88
2023/09/06 04:50:49;;;;;;;8.55;4.05;;;;;;;16.48;100.00;101724.06;4791185;29;20044;-88
2023/09/06 04:53:18;;;;;;;5.53;4.00;;;;;;;16.49;100.00;101725.72;4774971;30;20134;-88
2023/09/06 04:55:44;;;;;;;7.10;3.95;;;;;;;16.51;100.00;101732.88;4804364;29;20042;-88
2023/09/06 04:58:13;;;;;;;7.18;3.95;;;;;;;16.49;100.00;101731.22;4773877;30;20047;-88
2023/09/06 05:00:43;;;;;;;6.00;4.38;;;;;;;16.53;100.00;101738.97;4774918;29;20063;-88
2023/09/06 05:03:12;;;;;;;7.72;4.38;;;;;;;16.55;100.00;101729.44;4774074;30;20489;-92
2023/09/06 05:05:41;;;;;;;6.50;4.43;;;;;;;16.55;100.00;101737.66;4790816;30;20031;-91
2023/09/06 05:08:08;;;;;;;10.85;4.75;;;;;;;16.55;100.00;101745.03;4790808;30;20046;-91
2023/09/06 05:10:39;;;;;;;8.30;4.75;;;;;;;16.53;100.00;101741.69;4804399;29;20036;-89
2023/09/06 05:13:12;;;;;;;6.75;4.50;;;;;;;16.55;100.00;101742.28;4791166;30;20042;-91
2023/09/06 05:15:40;;;;;;;6.50;4.40;;;;;;;16.56;100.00;101749.44;4790014;29;20039;-87
2023/09/06 05:18:08;;;;;;;8.00;4.70;;;;;;;16.56;100.00;101753.00;4804123;29;20035;-87
2023/09/06 05:20:40;;;;;;;12.05;5.00;;;;;;;16.60;100.00;101745.19;4790167;29;20063;-88
2023/09/06 05:23:09;;;;;;;8.65;4.72;;;;;;;16.58;100.00;101752.78;4790195;30;20039;-87
2023/09/06 05:25:38;;;;;;;14.55;5.18;;;;;;;16.63;100.00;101758.41;4788500;29;20058;-86
2023/09/06 05:28:15;;;;;;;7.25;4.97;;;;;;;16.65;100.00;101754.38;4788327;29;20595;-87
2023/09/06 05:30:45;;;;;;;8.83;5.23;;;;;;;16.69;100.00;101754.72;4790357;30;20042;-87
2023/09/06 05:33:13;;;;;;;10.90;5.25;;;;;;;16.70;100.00;101756.41;4790366;29;20039;-87
2023/09/06 05:35:41;;;;;;;10.40;5.40;;;;;;;16.72;100.00;101761.66;4804013;29;20027;-88
2023/09/06 05:38:09;;;;;;;9.15;5.28;;;;;;;16.76;100.00;101757.38;4803298;29;20043;-88
2023/09/06 05:40:35;;;;;;;12.70;5.22;;;;;;;16.77;100.00;101761.75;4790069;30;20035;-87
2023/09/06 05:43:01;;;;;;;9.67;5.20;;;;;;;16.86;100.00;101768.59;4788558;29;20039;-86
2023/09/06 05:45:31;;;;;;;8.35;5.40;;;;;;;16.88;100.00;101768.41;4789814;30;20250;-86
2023/09/06 05:47:57;;;;;;;9.23;5.50;;;;;;;16.88;100.00;101768.41;4788945;30;20115;-86
2023/09/06 05:50:22;;;;;;;7.67;5.30;;;;;;;16.91;100.00;101771.47;4788444;29;20476;-85
2023/09/06 05:52:48;;;;;;;13.90;5.57;;;;;;;16.95;100.00;101769.94;4788105;29;20035;-85
2023/09/06 05:55:14;;;;;;;13.65;5.50;;;;;;;17.01;100.00;101773.66;4788973;29;20099;-85
2023/09/06 05:57:40;;;;;;;13.63;5.80;;;;;;;17.03;100.00;101766.03;4788464;29;20122;-85
2023/09/06 06:00:12;;;;;;;12.82;5.80;;;;;;;17.07;100.00;101769.16;4788996;29;20114;-87
2023/09/06 06:02:39;;;;;;;10.30;5.83;;;;;;;17.15;100.00;101772.34;4802899;29;20067;-85
2023/09/06 06:05:05;;;;;;;12.15;5.50;;;;;;;17.20;100.00;101768.91;4803414;29;20066;-85
2023/09/06 06:07:30;;;;;;;18.23;6.10;;;;;;;17.24;100.00;101767.34;4803132;29;20044;-85
2023/09/06 06:09:58;;;;;;;13.23;5.17;;;;;;;17.29;100.00;101770.22;4788269;29;20040;-85
2023/09/06 06:12:24;;;;;;;14.63;6.18;;;;;;;17.36;100.00;101779.16;4773417;30;20032;-85
2023/09/06 06:14:51;;;;;;;12.77;5.85;;;;;;;17.40;100.00;101773.22;4787868;29;20027;-86
2023/09/06 06:17:17;;;;;;;16.73;6.40;;;;;;;17.47;100.00;101777.50;4787571;29;20035;-86
2023/09/06 06:19:43;;;;;;;12.57;5.80;;;;;;;17.54;100.00;101782.88;4788025;29;20047;-86
2023/09/06 06:22:09;;;;;;;11.35;6.20;;;;;;;17.59;100.00;101787.63;4758035;29;20050;-86
2023/09/06 06:24:35;;;;;;;18.45;6.30;;;;;;;17.64;100.00;101785.00;4803036;29;20031;-86
2023/09/06 06:27:04;;;;;;;10.37;5.87;;;;;;;17.71;100.00;101792.00;4787782;30;20074;-86
2023/09/06 06:29:32;;;;;;;11.60;5.80;;;;;;;17.76;100.00;101790.47;4787006;30;20039;-85
2023/09/06 06:31:58;;;;;;;13.38;5.72;;;;;;;17.81;100.00;101785.94;4787111;29;20042;-85
2023/09/06 06:34:24;;;;;;;8.63;6.10;;;;;;;17.87;100.00;101789.63;4787948;29;20346;-86
2023/09/06 06:36:49;;;;;;;10.80;6.18;;;;;;;17.94;100.00;101784.88;4788532;29;20416;-85
2023/09/06 06:39:15;;;;;;;15.40;5.63;;;;;;;18.03;100.00;101790.81;4802720;29;20043;-85
2023/09/06 06:41:41;;;;;;;14.13;5.70;;;;;;;18.08;100.00;101790.09;4787499;29;20077;-86
2023/09/06 06:44:08;;;;;;;9.73;5.60;;;;;;;18.16;100.00;101790.53;4787355;29;20035;-86
2023/09/06 06:46:37;;;;;;;10.85;5.88;;;;;;;18.21;100.00;101793.38;4802316;29;20062;-86
2023/09/06 06:49:04;;;;;;;11.05;5.55;;;;;;;18.31;100.00;101798.25;4788467;29;20067;-86
2023/09/06 06:51:35;;;;;;;10.43;5.72;;;;;;;18.38;100.00;101793.47;4787089;30;20036;-87
2023/09/06 06:54:06;;;;;;;8.57;5.40;;;;;;;18.49;100.00;101799.97;4789162;30;20122;-86
2023/09/06 06:56:32;;;;;;;12.38;5.28;;;;;;;18.57;100.00;101794.09;4787139;30;20039;-86
2023/09/06 06:58:57;;;;;;;9.67;4.90;;;;;;;18.65;100.00;101806.59;4787768;30;20035;-86
2023/09/06 07:01:24;;;;;;;11.27;5.00;;;;;;;18.73;100.00;101802.59;4788524;29;20353;-86
2023/09/06 07:03:53;;;;;;;8.20;4.80;;;;;;;18.80;100.00;101805.22;4801778;29;20187;-86
2023/09/06 07:06:18;;;;;;;8.27;4.85;;;;;;;18.88;100.00;101810.31;4787434;30;20465;-85
2023/09/06 07:08:43;;;;;;;10.93;5.30;;;;;;;18.94;100.00;101814.81;4787073;29;20043;-85
2023/09/06 07:11:09;;;;;;;9.53;5.20;;;;;;;19.00;100.00;101813.84;4788546;29;20062;-86
2023/09/06 07:13:34;;;;;;;15.03;5.90;;;;;;;19.07;100.00;101808.19;4787088;30;20050;-85
2023/09/06 07:16:00;;;;;;;7.23;4.63;;;;;;;19.16;98.91;101811.34;4787338;30;20040;-86
2023/09/06 07:18:29;;;;;;;6.50;4.78;;;;;;;19.24;98.75;101806.28;4787026;30;20031;-87
2023/09/06 07:20:54;;;;;;;10.55;4.20;;;;;;;19.30;98.23;101798.94;4787102;29;20550;-86
2023/09/06 07:23:20;;;;;;;10.23;4.53;;;;;;;19.37;98.58;101796.00;4801925;29;20031;-86
2023/09/06 07:25:46;;;;;;;11.95;3.97;;;;;;;19.48;97.61;101799.75;4788386;29;20036;-86
2023/09/06 07:28:13;;;;;;;7.73;3.80;;;;;;;19.56;96.50;101804.81;4787900;29;20070;-87
2023/09/06 07:30:38;;;;;;;6.50;3.85;;;;;;;19.62;96.71;101801.03;4787351;30;20153;-86
2023/09/06 07:33:05;;;;;;;6.27;4.60;;;;;;;19.69;97.17;101806.38;4801717;29;20065;-87
2023/09/06 07:35:33;;;;;;;10.77;4.68;;;;;;;19.73;96.60;101805.63;4786586;29;20039;-87
2023/09/06 07:38:09;;;;;;;9.35;4.55;;;;;;;19.79;96.26;101799.13;4786822;29;20065;-88
2023/09/06 07:40:35;;;;;;;10.48;5.20;;;;;;;19.88;96.19;101815.22;4756996;30;20202;-89
2023/09/06 07:43:03;;;;;;;9.80;4.70;;;;;;;19.98;96.45;101815.34;4788224;29;20493;-86
2023/09/06 07:45:31;;;;;;;5.32;4.13;;;;;;;20.04;95.90;101819.84;4791692;29;20035;-87
2023/09/06 07:48:08;;;;;;;7.30;4.47;;;;;;;20.08;95.58;101809.97;4805694;29;20072;-86
2023/09/06 07:50:35;;;;;;;7.43;3.78;;;;;;;20.15;95.02;101804.25;4805548;29;20039;-86
2023/09/06 07:53:01;;;;;;;4.95;3.92;;;;;;;20.25;94.32;101815.41;4790686;30;20035;-86
2023/09/06 07:55:32;;;;;;;7.50;3.90;;;;;;;20.30;94.09;101807.22;4791675;30;20042;-86
2023/09/06 07:58:00;;;;;;;7.55;4.32;;;;;;;20.38;93.51;101814.19;4774858;30;20176;-87
2023/09/06 08:00:36;;;;;;;9.60;3.97;;;;;;;20.47;92.87;101820.91;4792143;30;20035;-85
2023/09/06 08:03:03;;;;;;;8.07;4.28;;;;;;;20.51;92.74;101808.28;4759897;30;20078;-89
2023/09/06 08:05:31;;;;;;;6.07;4.15;;;;;;;20.60;92.05;101813.34;4805280;29;20043;-87
2023/09/06 08:07:59;;;;;;;8.77;4.10;;;;;;;20.68;90.31;101813.72;4775357;30;20471;-88
2023/09/06 08:10:25;;;;;;;8.20;3.67;;;;;;;20.81;89.51;101825.44;4790434;30;20461;-88
2023/09/06 08:13:01;;;;;;;9.00;3.50;;;;;;;20.89;87.73;101815.84;4775043;30;20055;-87
2023/09/06 08:15:27;;;;;;;8.32;3.80;;;;;;;21.01;88.00;101816.53;4790294;30;20059;-87
2023/09/06 08:17:52;;;;;;;7.25;3.28;;;;;;;21.12;88.01;101825.72;4790256;30;20059;-88
2023/09/06 08:20:20;;;;;;;7.13;3.30;;;;;;;21.18;87.45;101819.13;4791089;30;20447;-88
2023/09/06 08:22:49;;;;;;;9.40;3.53;;;;;;;21.25;86.59;101819.75;4760245;30;20134;-87
2023/09/06 08:25:15;;;;;;;7.28;3.75;;;;;;;21.35;85.16;101821.75;4774991;30;20031;-88
2023/09/06 08:27:46;;;;;;;7.43;3.47;;;;;;;21.35;85.06;101825.34;4790913;29;20039;-87
2023/09/06 08:30:13;;;;;;;5.68;3.45;;;;;;;21.47;84.09;101816.06;4790642;29;20524;-88
2023/09/06 08:32:51;;;;;;;7.22;3.50;;;;;;;21.56;84.76;101822.75;4774787;30;20484;-88
2023/09/06 08:35:22;;;;;;;7.07;3.60;;;;;;;21.62;84.86;101818.09;4774980;30;20028;-87
2023/09/06 08:37:52;;;;;;;6.72;3.45;;;;;;;21.71;84.42;101817.31;4791703;30;20043;-87
2023/09/06 08:40:20;;;;;;;11.13;4.60;;;;;;;21.80;83.95;101817.66;4789575;30;20133;-87
2023/09/06 08:42:45;;;;;;;6.43;3.70;;;;;;;21.88;83.08;101817.16;4804469;29;20031;-88
2023/09/06 08:45:11;;;;;;;6.70;3.22;;;;;;;21.97;82.24;101805.56;4804465;29;20043;-88
2023/09/06 08:47:39;;;;;;;5.63;3.30;;;;;;;22.16;81.01;101817.00;4789675;30;20038;-87
2023/09/06 08:50:14;;;;;;;4.85;3.30;;;;;;;22.17;81.40;101815.91;4804739;29;20035;-88
2023/09/06 08:52:41;;;;;;;8.05;3.40;;;;;;;22.24;80.44;101822.81;4774938;30;20385;-87
2023/09/06 08:55:10;;;;;;;5.32;2.95;;;;;;;22.30;79.99;101818.16;4789945;29;20607;-87
2023/09/06 08:57:40;;;;;;;4.57;2.77;;;;;;;22.36;78.97;101828.16;4774468;30;20058;-88
2023/09/06 09:00:09;;;;;;;6.85;2.92;;;;;;;22.51;77.44;101815.47;4790408;29;20582;-88
2023/09/06 09:02:40;;;;;;;3.95;2.55;;;;;;;22.59;77.36;101820.50;4774254;29;20031;-87
2023/09/06 09:05:06;;;;;;;7.82;2.75;;;;;;;22.65;77.77;101816.63;4774344;30;20507;-88
2023/09/06 09:07:32;;;;;;;6.72;2.60;;;;;;;22.74;77.79;101814.97;4774609;30;20044;-86
2023/09/06 09:10:07;;;;;;;9.40;2.90;;;;;;;22.82;78.56;101824.66;4804301;29;20135;-86
2023/09/06 09:12:36;;;;;;;3.38;2.55;;;;;;;22.91;77.94;101817.50;4790570;29;20042;-86
2023/09/06 09:15:03;;;;;;;5.25;2.58;;;;;;;23.00;78.06;101820.56;4789227;30;20031;-86
2023/09/06 09:17:34;;;;;;;5.20;2.33;;;;;;;23.12;79.83;101812.00;4790288;29;20046;-86
2023/09/06 09:20:00;;;;;;;5.13;2.90;;;;;;;23.20;78.88;101819.75;4774859;30;20043;-86
2023/09/06 09:22:37;;;;;;;4.05;2.90;;;;;;;23.30;78.95;101816.16;4790088;30;20031;-85
2023/09/06 09:25:13;;;;;;;4.88;2.70;;;;;;;23.39;77.02;101821.94;4789519;30;20039;-85
2023/09/06 09:27:42;;;;;;;5.30;2.70;;;;;;;23.48;76.12;101818.31;4773879;29;20088;-86
2023/09/06 09:30:09;;;;;;;5.32;2.90;;;;;;;23.61;76.90;101813.34;4790225;29;20042;-86
2023/09/06 09:32:35;;;;;;;5.17;2.80;;;;;;;23.73;77.20;101816.63;4790025;29;20039;-86
2023/09/06 09:35:04;;;;;;;4.40;2.55;;;;;;;23.83;75.04;101810.22;4789604;30;20047;-85
2023/09/06 09:37:32;;;;;;;5.15;2.15;;;;;;;23.90;73.76;101813.56;4789168;29;20047;-85
2023/09/06 09:39:58;;;;;;;4.30;2.70;;;;;;;23.99;73.02;101817.41;4789913;29;20143;-85
2023/09/06 09:42:26;;;;;;;4.68;2.28;;;;;;;24.10;72.66;101812.63;4803604;29;20499;-85
2023/09/06 09:45:02;;;;;;;5.45;2.95;;;;;;;24.21;72.44;101810.63;4759104;30;20500;-85
2023/09/06 09:47:29;;;;;;;4.70;2.73;;;;;;;24.30;69.85;101805.31;4789811;29;20032;-85
2023/09/06 09:49:55;;;;;;;3.83;2.53;;;;;;;24.43;70.08;101803.88;4789785;29;20039;-82
2023/09/06 09:52:28;;;;;;;2.83;2.53;;;;;;;24.56;69.38;101806.00;4789673;29;20039;-85
2023/09/06 09:54:55;;;;;;;3.80;2.37;;;;;;;24.63;68.98;101805.75;4789743;29;20027;-84
2023/09/06 09:57:23;;;;;;;6.13;2.63;;;;;;;24.74;69.05;101809.25;4773663;30;20042;-84
2023/09/06 09:59:57;;;;;;;4.55;2.45;;;;;;;24.84;68.52;101812.78;4789214;30;20127;-84
2023/09/06 10:02:27;;;;;;;4.75;2.80;;;;;;;24.90;67.36;101798.88;4803119;29;20039;-85
2023/09/06 10:04:53;;;;;;;3.58;2.75;;;;;;;24.97;67.30;101805.75;4788146;29;20089;-84
2023/09/06 10:07:20;;;;;;;4.50;2.97;;;;;;;25.11;66.99;101805.09;4787049;29;20046;-82
2023/09/06 10:09:47;;;;;;;5.85;2.92;;;;;;;25.26;66.90;101799.41;4802932;29;20553;-85
2023/09/06 10:12:16;;;;;;;8.48;3.10;;;;;;;25.44;67.58;101805.34;4773373;30;20039;-85
2023/09/06 10:14:45;;;;;;;6.78;2.97;;;;;;;25.60;68.40;101806.03;4787960;29;20031;-85
2023/09/06 10:17:21;;;;;;;;;;;;;;;;;;;;;
2023/09/06 10:19:52;;;;;;;11.13;2.83;;;;;;;25.94;65.03;101803.16;4788955;29;20055;-86
2023/09/06 10:22:23;;;;;;;8.50;2.88;;;;;;;26.09;63.87;101799.38;4788656;29;20063;-86
2023/09/06 10:24:54;;;;;;;5.82;2.50;;;;;;;26.25;61.34;101805.56;4789644;29;20533;-85
2023/09/06 10:27:19;;;;;;;3.97;2.70;;;;;;;26.41;60.76;101811.72;4772995;30;20042;-86
2023/09/06 10:29:59;;;;;;;5.30;3.00;;;;;;;26.59;60.83;101805.34;5109073;27;1306113;-86
2023/09/06 10:32:41;;;;;;;5.72;2.67;;;;;;;26.73;59.88;101801.84;5130363;28;20395;-86
2023/09/06 10:35:21;;;;;;;5.10;2.85;;;;;;;26.87;59.97;101802.72;5130821;28;20209;-86
2023/09/06 10:38:11;;;;;;;4.68;2.97;;;;;;;27.06;58.97;101802.69;5130371;28;20031;-86
2023/09/06 10:40:51;;;;;;;6.28;2.95;;;;;;;27.24;58.76;101791.78;5132074;27;20035;-86
2023/09/06 10:43:23;;;;;;;6.37;3.03;;;;;;;27.41;56.79;101794.03;5129923;28;20157;-86
2023/09/06 10:46:26;;;;;;;5.55;2.85;;;;;;;27.63;56.80;101794.16;5130741;28;20031;-86
2023/09/06 10:49:26;;;;;;;6.63;2.92;;;;;;;27.90;57.41;101788.88;5129110;28;20036;-86
2023/09/06 10:52:08;;;;;;;5.20;3.20;;;;;;;28.13;55.88;101787.84;5059361;28;20067;-87
2023/09/06 10:54:46;;;;;;;3.83;3.03;;;;;;;28.32;55.24;101782.13;5130176;28;20181;-87
2023/09/06 10:57:22;;;;;;;4.87;2.97;;;;;;;28.63;53.69;101777.84;5130161;28;20024;-87
2023/09/06 10:59:58;;;;;;;6.22;3.05;;;;;;;28.88;54.49;101776.38;5129714;28;20114;-86
2023/09/06 11:02:27;;;;;;;3.97;3.20;;;;;;;29.15;52.31;101778.19;5129822;28;20053;-87
2023/09/06 11:05:06;;;;;;;5.43;3.30;;;;;;;29.46;52.51;101784.97;5129867;28;20043;-87
2023/09/06 11:07:48;;;;;;;5.75;3.45;;;;;;;29.86;51.09;101784.97;5130741;27;20085;-86
2023/09/06 11:10:13;;;;;;;6.53;3.67;;;;;;;30.22;49.39;101776.31;5130002;28;20058;-86
2023/09/06 11:12:41;;;;;;;11.77;3.35;;;;;;;31.11;48.39;101783.59;5129764;28;20506;-86
2023/09/06 11:15:09;;;;;;;4.32;3.20;;;;;;;33.51;41.73;101777.22;5129709;28;20082;-86
2023/09/06 11:17:37;;;;;;;6.10;3.27;;;;;;;36.82;34.45;101767.50;5130758;27;20032;-86
2023/09/06 11:20:22;;;;;;;7.70;3.10;;;;;;;39.78;31.51;101763.72;5112492;28;20035;-86
2023/09/06 11:22:59;;;;;;;5.35;3.28;;;;;;;42.39;27.05;101750.19;5129659;28;20063;-86
2023/09/06 11:25:26;;;;;;;5.03;3.45;;;;;;;44.62;22.94;101761.56;5130774;27;20093;-86
2023/09/06 11:27:56;;;;;;;6.70;3.63;;;;;;;46.24;20.59;101752.16;5130280;27;20484;-87
2023/09/06 11:30:23;;;;;;;4.10;3.60;;;;;;;47.31;19.01;101747.97;5130022;27;20054;-86
2023/09/06 11:32:55;;;;;;;3.88;3.58;;;;;;;48.11;17.43;101744.53;5129316;28;20043;-87